| time (UTC) | temp F | wind direction | speed MPH | gust MPH | rain 1hr in | rain 24hr in | rain mn in | humidity % | barometer mb |
| 20260510030005 | 55 | 69 | 0.0 | 0.0 | 0.00 | 0.00 | 0.00 | 50 | 1007.2 |
| 20260510024602 | 55 | 69 | 0.0 | 0.0 | 0.00 | 0.00 | 0.00 | 50 | 1006.9 |
| 20260510023056 | 56 | 69 | 0.0 | 0.0 | 0.00 | 0.00 | 0.00 | 49 | 1006.6 |
| 20260510021641 | 56 | 69 | 1.0 | 0.0 | 0.00 | 0.00 | 0.00 | 48 | 1006.1 |
| 20260510020049 | 57 | 73 | 1.0 | 0.0 | 0.00 | 0.00 | 0.00 | 47 | 1005.8 |
| 20260510014553 | 58 | 77 | 1.0 | 0.0 | 0.00 | 0.00 | 0.00 | 45 | 1005.5 |
| 20260510013038 | 60 | 77 | 2.0 | 0.0 | 0.00 | 0.00 | 0.00 | 43 | 1005.1 |
| 20260510011534 | 64 | 65 | 1.0 | 0.0 | 0.00 | 0.00 | 0.00 | 38 | 1004.7 |
| 20260510010039 | 67 | 355 | 1.0 | 0.0 | 0.00 | 0.00 | 0.00 | 34 | 1004.0 |
| 20260510004524 | 68 | 11 | 1.0 | 0.0 | 0.00 | 0.00 | 0.00 | 34 | 1003.6 |
| 20260510003023 | 69 | 20 | 2.0 | 0.0 | 0.00 | 0.00 | 0.00 | 34 | 1003.4 |
| 20260510001516 | 69 | 355 | 0.0 | 0.0 | 0.00 | 0.00 | 0.00 | 33 | 1003.0 |
| 20260510000012 | 70 | 14 | 1.0 | 0.0 | 0.00 | 0.00 | 0.00 | 33 | 1002.7 |
| 20260509234509 | 71 | 329 | 1.0 | 0.0 | 0.00 | 0.00 | 0.00 | 33 | 1002.5 |
| 20260509233003 | 71 | 317 | 2.0 | 0.0 | 0.00 | 0.00 | 0.00 | 32 | 1002.3 |
| 20260509231604 | 71 | 360 | 2.0 | 0.0 | 0.00 | 0.00 | 0.00 | 33 | 1002.2 |
| 20260509230058 | 72 | 355 | 1.0 | 0.0 | 0.00 | 0.00 | 0.00 | 32 | 1001.8 |
| 20260509224549 | 72 | 325 | 1.0 | 0.0 | 0.00 | 0.00 | 0.00 | 32 | 1001.7 |
| 20260509223047 | 72 | 329 | 3.0 | 0.0 | 0.00 | 0.00 | 0.00 | 30 | 1001.5 |
| 20260509221541 | 73 | 351 | 3.0 | 0.0 | 0.00 | 0.00 | 0.00 | 28 | 1001.3 |
| 20260509220036 | 73 | 321 | 4.0 | 0.0 | 0.00 | 0.00 | 0.00 | 28 | 1001.1 |
| 20260509214532 | 74 | 315 | 2.0 | 0.0 | 0.00 | 0.00 | 0.00 | 29 | 1000.8 |
| 20260509213031 | 74 | 13 | 3.0 | 0.0 | 0.00 | 0.00 | 0.00 | 28 | 1000.6 |
| 20260509211523 | 75 | 355 | 3.0 | 0.0 | 0.00 | 0.00 | 0.00 | 27 | 1000.6 |
| 20260509210019 | 75 | 329 | 4.0 | 0.0 | 0.00 | 0.00 | 0.00 | 27 | 1000.5 |
| 20260509204514 | 75 | 315 | 3.0 | 0.0 | 0.00 | 0.00 | 0.00 | 28 | 1000.2 |
| 20260509203013 | 76 | 322 | 3.0 | 0.0 | 0.00 | 0.00 | 0.00 | 27 | 1000.4 |
| 20260509201511 | 75 | 311 | 3.0 | 0.0 | 0.00 | 0.00 | 0.00 | 29 | 1000.4 |
| 20260509200002 | 74 | 329 | 2.0 | 0.0 | 0.00 | 0.00 | 0.00 | 30 | 1000.5 |
| 20260509194601 | 74 | 325 | 3.0 | 0.0 | 0.00 | 0.00 | 0.00 | 29 | 1000.6 |
| 20260509193055 | 73 | 339 | 3.0 | 0.0 | 0.00 | 0.00 | 0.00 | 31 | 1000.6 |
| 20260509191602 | 73 | 304 | 3.0 | 0.0 | 0.00 | 0.00 | 0.00 | 30 | 1000.6 |
| 20260509190047 | 74 | 250 | 2.0 | 0.0 | 0.00 | 0.00 | 0.00 | 29 | 1000.4 |
| 20260509184539 | 74 | 313 | 2.0 | 0.0 | 0.00 | 0.00 | 0.00 | 28 | 1000.4 |
| 20260509183036 | 73 | 338 | 2.0 | 0.0 | 0.00 | 0.00 | 0.00 | 31 | 1000.4 |
| 20260509181531 | 72 | 5 | 2.0 | 0.0 | 0.00 | 0.00 | 0.00 | 31 | 1000.5 |
| 20260509180027 | 72 | 20 | 2.0 | 0.0 | 0.00 | 0.00 | 0.00 | 31 | 1000.5 |
| 20260509174522 | 72 | 281 | 2.0 | 0.0 | 0.00 | 0.00 | 0.00 | 31 | 1000.7 |
| 20260509173026 | 72 | 17 | 2.0 | 0.0 | 0.00 | 0.00 | 0.00 | 34 | 1000.8 |
| 20260509171513 | 72 | 17 | 3.0 | 0.0 | 0.00 | 0.00 | 0.00 | 34 | 1000.7 |
| 20260509170012 | 71 | 344 | 1.0 | 0.0 | 0.00 | 0.00 | 0.00 | 40 | 1000.7 |
| 20260509164506 | 70 | 319 | 1.0 | 0.0 | 0.00 | 0.00 | 0.00 | 41 | 1000.9 |
| 20260509163105 | 69 | 302 | 1.0 | 0.0 | 0.00 | 0.00 | 0.00 | 40 | 1000.9 |
| 20260509161603 | 69 | 331 | 1.0 | 0.0 | 0.00 | 0.00 | 0.00 | 38 | 1001.0 |
| 20260509160052 | 67 | 324 | 1.0 | 0.0 | 0.00 | 0.00 | 0.00 | 35 | 1000.9 |
| 20260509154550 | 65 | 229 | 1.0 | 0.0 | 0.00 | 0.00 | 0.00 | 32 | 1001.0 |
| 20260509153055 | 64 | 315 | 1.0 | 0.0 | 0.00 | 0.00 | 0.00 | 30 | 1001.1 |
| 20260509151538 | 63 | 315 | 1.0 | 0.0 | 0.00 | 0.00 | 0.00 | 24 | 1001.1 |
| 20260509150034 | 62 | 309 | 1.0 | 0.0 | 0.00 | 0.00 | 0.00 | 14 | 1001.2 |
| 20260509144529 | 61 | 340 | 1.0 | 0.0 | 0.00 | 0.00 | 0.00 | 2 | 1001.1 |
| 20260509143027 | 60 | 321 | 1.0 | 0.0 | 0.00 | 0.00 | 0.00 | 100 | 1001.2 |
| 20260509141532 | 59 | 335 | 1.0 | 0.0 | 0.00 | 0.00 | 0.00 | 100 | 1001.1 |
| 20260509140017 | 59 | 355 | 2.0 | 0.0 | 0.00 | 0.00 | 0.00 | 100 | 1001.1 |
| 20260509134513 | 58 | 319 | 2.0 | 0.0 | 0.00 | 0.00 | 0.00 | 100 | 1000.9 |
| 20260509133008 | 57 | 249 | 1.0 | 0.0 | 0.00 | 0.00 | 0.00 | 100 | 1000.9 |
| 20260509131503 | 56 | 263 | 1.0 | 0.0 | 0.00 | 0.00 | 0.00 | 100 | 1001.1 |
| 20260509130100 | 55 | 331 | 1.0 | 0.0 | 0.00 | 0.00 | 0.00 | 100 | 1001.0 |
| 20260509124556 | 54 | 331 | 1.0 | 0.0 | 0.00 | 0.00 | 0.00 | 100 | 1000.9 |
| 20260509123051 | 54 | 327 | 1.0 | 0.0 | 0.00 | 0.00 | 0.00 | 100 | 1000.9 |
| 20260509121548 | 53 | 303 | 1.0 | 0.0 | 0.00 | 0.00 | 0.00 | 100 | 1000.9 |
| 20260509120042 | 53 | 323 | 0.0 | 0.0 | 0.00 | 0.00 | 0.00 | 100 | 1001.0 |
| 20260509114538 | 53 | 257 | 0.0 | 0.0 | 0.00 | 0.00 | 0.00 | 100 | 1000.8 |
| 20260509113033 | 52 | 261 | 0.0 | 0.0 | 0.00 | 0.00 | 0.00 | 100 | 1000.6 |
| 20260509111529 | 53 | 325 | 0.0 | 0.0 | 0.00 | 0.00 | 0.00 | 100 | 1000.4 |
| 20260509110025 | 53 | 241 | 1.0 | 0.0 | 0.00 | 0.00 | 0.00 | 100 | 1000.7 |
| 20260509104520 | 53 | 270 | 1.0 | 0.0 | 0.00 | 0.00 | 0.00 | 100 | 1000.3 |
| 20260509103017 | 53 | 246 | 0.0 | 0.0 | 0.00 | 0.00 | 0.00 | 100 | 1000.2 |
| 20260509101514 | 53 | 234 | 0.0 | 0.0 | 0.00 | 0.00 | 0.00 | 100 | 1000.1 |
| 20260509100007 | 53 | 241 | 0.0 | 0.0 | 0.00 | 0.00 | 0.00 | 100 | 1000.3 |
| 20260509094503 | 53 | 246 | 0.0 | 0.0 | 0.00 | 0.00 | 0.00 | 100 | 1000.6 |
| 20260509093101 | 53 | 272 | 0.0 | 0.0 | 0.00 | 0.00 | 0.00 | 100 | 1000.7 |
| 20260509091556 | 53 | 279 | 0.0 | 0.0 | 0.00 | 0.00 | 0.00 | 100 | 1001.0 |
| 20260509090056 | 53 | 243 | 0.0 | 0.0 | 0.00 | 0.00 | 0.00 | 100 | 1000.9 |
| 20260509084557 | 53 | 245 | 0.0 | 0.0 | 0.00 | 0.00 | 0.00 | 100 | 1001.2 |
| 20260509083042 | 53 | 232 | 0.0 | 0.0 | 0.00 | 0.00 | 0.00 | 100 | 1001.1 |
| 20260509081537 | 53 | 234 | 0.0 | 0.0 | 0.00 | 0.00 | 0.00 | 100 | 1001.1 |
| 20260509080041 | 53 | 231 | 0.0 | 0.0 | 0.00 | 0.00 | 0.00 | 100 | 1001.2 |
| 20260509074529 | 53 | 231 | 0.0 | 0.0 | 0.00 | 0.00 | 0.00 | 100 | 1001.3 |
| 20260509073034 | 54 | 232 | 0.0 | 0.0 | 0.00 | 0.00 | 0.00 | 100 | 1001.4 |
| 20260509071519 | 54 | 231 | 0.0 | 0.0 | 0.00 | 0.00 | 0.00 | 100 | 1001.5 |
| 20260509070015 | 54 | 302 | 0.0 | 0.0 | 0.00 | 0.00 | 0.00 | 100 | 1001.9 |
| 20260509064514 | 54 | 304 | 0.0 | 0.0 | 0.00 | 0.00 | 0.00 | 100 | 1002.0 |
| 20260509063015 | 55 | 304 | 0.0 | 0.0 | 0.00 | 0.00 | 0.00 | 100 | 1002.0 |
| 20260509061502 | 55 | 311 | 0.0 | 0.0 | 0.00 | 0.00 | 0.00 | 100 | 1002.3 |
| 20260509060117 | 55 | 285 | 0.0 | 0.0 | 0.00 | 0.00 | 0.00 | 100 | 1002.4 |
| 20260509054554 | 56 | 315 | 0.0 | 0.0 | 0.00 | 0.00 | 0.00 | 100 | 1002.6 |
| 20260509053102 | 56 | 268 | 1.0 | 0.0 | 0.00 | 0.00 | 0.00 | 100 | 1002.6 |
| 20260509051548 | 56 | 326 | 1.0 | 0.0 | 0.00 | 0.00 | 0.00 | 100 | 1002.6 |
| 20260509050041 | 57 | 328 | 1.0 | 0.0 | 0.00 | 0.00 | 0.00 | 100 | 1002.5 |
| 20260509044536 | 57 | 294 | 1.0 | 0.0 | 0.00 | 0.00 | 0.00 | 100 | 1002.6 |
| 20260509043041 | 57 | 250 | 1.0 | 0.0 | 0.00 | 0.00 | 0.00 | 100 | 1002.5 |
| 20260509041527 | 58 | 253 | 0.0 | 0.0 | 0.00 | 0.00 | 0.00 | 6 | 1002.6 |
| 20260509040026 | 58 | 314 | 1.0 | 0.0 | 0.00 | 0.00 | 0.00 | 17 | 1002.7 |
| 20260509034518 | 59 | 242 | 1.0 | 0.0 | 0.00 | 0.00 | 0.00 | 24 | 1002.7 |
| 20260509033015 | 59 | 226 | 1.0 | 0.0 | 0.00 | 0.00 | 0.00 | 29 | 1002.7 |
| 20260509031512 | 60 | 231 | 0.0 | 0.0 | 0.00 | 0.00 | 0.00 | 35 | 1002.8 |